createdAt,value
2023-05-02T00:01:01.606Z,7.48
2023-05-02T00:03:34.542Z,7.40
2023-05-02T00:06:07.070Z,7.27
2023-05-02T00:08:39.690Z,7.35
2023-05-02T00:11:13.664Z,7.41
2023-05-02T00:13:46.082Z,7.44
2023-05-02T00:16:18.530Z,7.44
2023-05-02T00:18:51.022Z,7.46
2023-05-02T00:21:23.272Z,7.43
2023-05-02T00:23:56.331Z,7.41
2023-05-02T00:26:29.694Z,7.37
2023-05-02T00:29:02.091Z,7.32
2023-05-02T00:31:35.232Z,7.32
2023-05-02T00:34:07.711Z,7.20
2023-05-02T00:36:40.027Z,7.21
2023-05-02T00:39:12.648Z,7.27
2023-05-02T00:41:45.649Z,7.34
2023-05-02T00:44:18.018Z,7.26
2023-05-02T00:46:50.868Z,7.10
2023-05-02T00:49:23.242Z,7.04
2023-05-02T00:51:55.509Z,7.09
2023-05-02T00:54:28.637Z,7.09
2023-05-02T00:57:02.254Z,7.04
2023-05-02T00:59:36.326Z,6.98
2023-05-02T01:02:25.720Z,7.07
2023-05-02T01:05:05.400Z,7.08
2023-05-02T01:08:02.214Z,7.09
2023-05-02T01:10:47.691Z,7.05
2023-05-02T01:13:26.048Z,6.98
2023-05-02T01:16:00.866Z,6.89
2023-05-02T01:18:37.302Z,6.97
2023-05-02T01:21:11.355Z,7.05
2023-05-02T01:23:52.445Z,6.95
2023-05-02T01:26:32.668Z,6.80
2023-05-02T01:29:07.803Z,6.69
2023-05-02T01:31:43.745Z,6.64
2023-05-02T01:34:19.824Z,6.64
2023-05-02T01:36:54.307Z,6.58
2023-05-02T01:39:28.311Z,6.61
2023-05-02T01:42:03.252Z,6.60
2023-05-02T01:44:37.134Z,6.62
2023-05-02T01:47:10.279Z,6.55
2023-05-02T01:49:44.143Z,6.59
2023-05-02T01:52:21.039Z,6.45
2023-05-02T01:54:55.085Z,6.43
2023-05-02T01:57:27.483Z,6.45
2023-05-02T02:00:03.339Z,6.54
2023-05-02T02:02:47.552Z,6.45
2023-05-02T02:05:22.209Z,6.45
2023-05-02T02:07:54.697Z,6.45
2023-05-02T02:10:31.589Z,6.44
2023-05-02T02:13:12.387Z,6.29
2023-05-02T02:15:48.932Z,6.39
2023-05-02T02:18:25.768Z,6.45
2023-05-02T02:21:00.237Z,6.51
2023-05-02T02:23:34.460Z,6.38
2023-05-02T02:26:09.157Z,6.23
2023-05-02T02:28:42.198Z,6.25
2023-05-02T02:31:15.377Z,6.26
2023-05-02T02:33:48.089Z,6.19
2023-05-02T02:36:27.540Z,6.11
2023-05-02T02:39:13.523Z,6.12
2023-05-02T02:41:55.690Z,6.19
2023-05-02T02:44:40.027Z,6.17
2023-05-02T02:47:23.330Z,6.17
2023-05-02T02:50:11.278Z,6.15
2023-05-02T02:52:54.779Z,6.10
2023-05-02T02:55:38.392Z,6.09
2023-05-02T02:58:19.935Z,6.12
2023-05-02T03:00:53.136Z,5.97
2023-05-02T03:03:28.431Z,6.11
2023-05-02T03:06:01.031Z,6.14
2023-05-02T03:08:39.766Z,6.08
2023-05-02T03:11:12.204Z,6.03
2023-05-02T03:13:44.752Z,6.02
2023-05-02T03:16:34.374Z,5.86
2023-05-02T03:19:08.898Z,5.88
2023-05-02T03:21:42.090Z,5.95
2023-05-02T03:24:22.653Z,5.82
2023-05-02T03:26:55.776Z,5.77
2023-05-02T03:29:31.350Z,5.82
2023-05-02T03:32:03.789Z,5.62
2023-05-02T03:34:37.125Z,5.64
2023-05-02T03:37:09.612Z,5.74
2023-05-02T03:39:41.987Z,5.76
2023-05-02T03:42:14.296Z,5.80
2023-05-02T03:44:46.865Z,5.70
2023-05-02T03:47:19.976Z,5.58
2023-05-02T03:49:53.166Z,5.69
2023-05-02T03:52:26.067Z,5.78
2023-05-02T03:55:00.908Z,5.73
2023-05-02T03:57:33.975Z,5.77
2023-05-02T04:00:07.584Z,5.85
2023-05-02T04:02:51.390Z,5.84
2023-05-02T04:05:28.142Z,5.80
2023-05-02T04:08:01.507Z,5.80
2023-05-02T04:10:34.684Z,5.81
2023-05-02T04:13:09.859Z,5.80
2023-05-02T04:15:45.321Z,5.83
2023-05-02T04:18:18.415Z,5.81
2023-05-02T04:20:51.454Z,5.86
2023-05-02T04:23:25.595Z,5.89
2023-05-02T04:26:02.886Z,5.99
2023-05-02T04:28:44.388Z,6.16
2023-05-02T04:31:20.059Z,6.32
2023-05-02T04:33:53.242Z,6.52
2023-05-02T04:36:30.239Z,6.71
2023-05-02T04:39:03.316Z,6.82
2023-05-02T04:41:37.527Z,6.99
2023-05-02T04:44:12.215Z,7.14
2023-05-02T04:46:45.336Z,7.27
2023-05-02T04:49:18.024Z,7.42
2023-05-02T04:51:52.027Z,7.55
2023-05-02T04:54:24.520Z,7.72
2023-05-02T04:56:58.736Z,7.78
2023-05-02T04:59:31.533Z,7.84
2023-05-02T05:02:07.404Z,7.99
2023-05-02T05:04:39.784Z,8.07
2023-05-02T05:07:13.149Z,8.23
2023-05-02T05:09:45.504Z,8.44
2023-05-02T05:12:18.092Z,8.49
2023-05-02T05:14:50.475Z,8.62
2023-05-02T05:17:24.058Z,8.70
2023-05-02T05:19:56.504Z,8.76
2023-05-02T05:22:29.555Z,8.82
2023-05-02T05:25:02.304Z,8.97
2023-05-02T05:27:37.643Z,9.15
2023-05-02T05:30:11.594Z,9.32
2023-05-02T05:32:44.585Z,9.38
2023-05-02T05:35:17.172Z,9.59
2023-05-02T05:37:50.727Z,9.65
2023-05-02T05:40:23.785Z,9.71
2023-05-02T05:43:01.492Z,9.92
2023-05-02T05:45:38.103Z,10.02
2023-05-02T05:48:11.478Z,10.14
2023-05-02T05:50:48.907Z,10.11
2023-05-02T05:53:22.083Z,10.36
2023-05-02T05:55:55.297Z,10.58
2023-05-02T05:58:28.500Z,10.57
2023-05-02T06:01:01.958Z,10.74
2023-05-02T06:03:34.794Z,10.81
2023-05-02T06:06:07.331Z,10.85
2023-05-02T06:08:40.364Z,11.03
2023-05-02T06:11:12.890Z,11.35
2023-05-02T06:13:45.958Z,11.40
2023-05-02T06:16:18.538Z,11.65
2023-05-02T06:18:52.356Z,11.71
2023-05-02T06:21:24.635Z,11.79
2023-05-02T06:23:57.592Z,11.87
2023-05-02T06:26:30.091Z,12.09
2023-05-02T06:29:02.972Z,12.26
2023-05-02T06:31:35.268Z,12.40
2023-05-02T06:34:07.626Z,12.39
2023-05-02T06:36:39.913Z,12.54
2023-05-02T06:39:12.894Z,12.72
2023-05-02T06:41:45.341Z,12.91
2023-05-02T06:44:21.900Z,13.05
2023-05-02T06:47:26.904Z,12.93
2023-05-02T06:50:02.773Z,13.12
2023-05-02T06:52:35.254Z,13.26
2023-05-02T06:55:08.893Z,13.43
2023-05-02T06:57:41.762Z,13.47
2023-05-02T07:00:16.283Z,13.50
2023-05-02T07:02:49.216Z,13.62
2023-05-02T07:05:21.587Z,13.79
2023-05-02T07:07:53.880Z,13.81
2023-05-02T07:10:27.073Z,14.21
2023-05-02T07:12:59.365Z,14.50
2023-05-02T07:15:31.746Z,14.58
2023-05-02T07:18:04.137Z,14.77
2023-05-02T07:20:38.116Z,14.65
2023-05-02T07:23:10.424Z,14.86
2023-05-02T07:25:43.494Z,14.59
2023-05-02T07:28:15.823Z,14.80
2023-05-02T07:30:48.149Z,15.09
2023-05-02T07:33:20.588Z,15.24
2023-05-02T07:35:52.948Z,15.42
2023-05-02T07:38:27.392Z,15.73
2023-05-02T07:41:00.884Z,15.91
2023-05-02T07:43:33.179Z,16.05
2023-05-02T07:46:06.032Z,16.18
2023-05-02T07:48:38.576Z,16.20
2023-05-02T07:51:11.455Z,16.20
2023-05-02T07:53:43.779Z,16.42
2023-05-02T07:56:16.723Z,16.68
2023-05-02T07:58:50.855Z,16.90
2023-05-02T08:01:23.163Z,16.68
2023-05-02T08:03:55.632Z,16.74
2023-05-02T08:06:28.307Z,17.12
2023-05-02T08:09:01.034Z,17.08
2023-05-02T08:11:33.994Z,16.83
2023-05-02T08:14:06.304Z,17.37
2023-05-02T08:16:38.930Z,17.45
2023-05-02T08:19:11.316Z,17.69
2023-05-02T08:21:43.666Z,17.69
2023-05-02T08:24:16.007Z,17.71
2023-05-02T08:26:49.237Z,18.17
2023-05-02T08:29:21.571Z,18.16
2023-05-02T08:31:53.958Z,18.45
2023-05-02T08:34:26.288Z,18.67
2023-05-02T08:36:58.692Z,18.80
2023-05-02T08:39:33.010Z,18.97
2023-05-02T08:42:07.373Z,19.05
2023-05-02T08:44:39.864Z,19.03
2023-05-02T08:47:14.226Z,19.15
2023-05-02T08:49:48.474Z,19.19
2023-05-02T08:52:21.862Z,19.22
2023-05-02T08:54:55.264Z,19.24
2023-05-02T08:57:30.113Z,19.09
2023-05-02T09:00:03.440Z,19.18
2023-05-02T09:02:58.494Z,19.13
2023-05-02T09:05:36.282Z,18.55
2023-05-02T09:08:09.187Z,18.09
2023-05-02T09:10:42.403Z,17.84
2023-05-02T09:13:35.580Z,17.70
2023-05-02T09:16:09.959Z,17.45
2023-05-02T09:18:44.119Z,17.35
2023-05-02T09:21:20.643Z,17.22
2023-05-02T09:23:55.168Z,17.14
2023-05-02T09:26:31.834Z,17.34
2023-05-02T09:29:05.103Z,17.56
2023-05-02T09:34:14.277Z,17.50
2023-05-02T09:36:50.166Z,17.84
2023-05-02T09:39:25.937Z,18.07
2023-05-02T09:41:59.466Z,18.28
2023-05-02T09:44:38.397Z,18.45
2023-05-02T09:47:10.893Z,18.61
2023-05-02T09:49:44.417Z,18.75
2023-05-02T09:52:19.119Z,18.72
2023-05-02T09:54:51.906Z,18.84
2023-05-02T09:57:39.534Z,18.75
2023-05-02T10:00:15.667Z,18.78
2023-05-02T10:02:50.898Z,18.80
2023-05-02T10:05:23.624Z,19.05
2023-05-02T10:07:56.307Z,18.89
2023-05-02T10:10:28.997Z,19.14
2023-05-02T10:13:02.833Z,19.25
2023-05-02T10:15:41.289Z,19.39
2023-05-02T10:18:17.531Z,19.47
2023-05-02T10:20:56.802Z,19.36
2023-05-02T10:23:29.652Z,19.48
2023-05-02T10:26:02.440Z,19.32
2023-05-02T10:28:35.064Z,19.49
2023-05-02T10:31:10.175Z,19.85
2023-05-02T10:33:42.749Z,19.96
2023-05-02T10:36:15.309Z,20.20
2023-05-02T10:38:48.450Z,20.21
2023-05-02T10:41:24.084Z,19.65
2023-05-02T10:43:56.705Z,19.99
2023-05-02T10:46:34.076Z,19.95
2023-05-02T10:49:07.814Z,19.52
2023-05-02T10:51:42.152Z,19.40
2023-05-02T10:54:22.090Z,19.35
2023-05-02T10:57:06.044Z,19.19
2023-05-02T10:59:39.584Z,19.48
2023-05-02T11:02:50.774Z,19.71
2023-05-02T11:05:24.350Z,19.55
2023-05-02T11:08:32.190Z,19.47
2023-05-02T11:11:39.576Z,19.65
2023-05-02T11:14:33.082Z,19.85
2023-05-02T11:17:06.843Z,20.15
2023-05-02T11:20:21.667Z,20.05
2023-05-02T11:23:21.443Z,19.97
2023-05-02T11:25:55.642Z,20.22
2023-05-02T11:28:43.859Z,20.21
2023-05-02T11:31:49.694Z,20.50
2023-05-02T11:34:22.157Z,20.64
2023-05-02T11:36:54.633Z,20.58
2023-05-02T11:39:27.665Z,20.86
2023-05-02T11:42:00.178Z,20.88
2023-05-02T11:44:32.788Z,20.85
2023-05-02T11:47:05.173Z,20.69
2023-05-02T11:49:37.657Z,20.44
2023-05-02T11:52:10.211Z,20.20
2023-05-02T11:54:43.412Z,20.06
2023-05-02T11:57:15.897Z,20.35
2023-05-02T11:59:52.287Z,20.49
2023-05-02T12:02:36.150Z,20.76
2023-05-02T12:05:10.163Z,20.79
2023-05-02T12:07:44.527Z,20.83
2023-05-02T12:10:17.611Z,20.83
2023-05-02T12:12:50.503Z,20.62
2023-05-02T12:15:23.244Z,20.77
2023-05-02T12:17:55.742Z,21.10
2023-05-02T12:20:28.210Z,21.28
2023-05-02T12:23:00.924Z,21.26
2023-05-02T12:25:38.810Z,21.50
2023-05-02T12:28:11.089Z,21.33
2023-05-02T12:30:47.225Z,21.25
2023-05-02T12:33:19.618Z,21.06
2023-05-02T12:35:53.303Z,20.94
2023-05-02T12:38:25.767Z,20.62
2023-05-02T12:40:58.904Z,20.96
2023-05-02T12:43:45.755Z,20.85
2023-05-02T12:46:18.267Z,20.28
2023-05-02T12:49:01.582Z,19.91
2023-05-02T12:51:34.061Z,19.66
2023-05-02T12:54:06.528Z,19.68
2023-05-02T12:56:40.689Z,19.84
2023-05-02T12:59:26.732Z,19.91
2023-05-02T13:01:59.674Z,20.22
2023-05-02T13:04:35.685Z,20.53
2023-05-02T13:07:08.134Z,20.50
2023-05-02T13:09:40.651Z,20.62
2023-05-02T13:12:13.760Z,20.52
2023-05-02T13:14:46.136Z,20.25
2023-05-02T13:17:18.731Z,20.24
2023-05-02T13:20:00.805Z,20.38
2023-05-02T13:22:34.874Z,20.72
2023-05-02T13:25:08.641Z,21.13
2023-05-02T13:27:41.622Z,21.41
2023-05-02T13:30:14.021Z,21.37
2023-05-02T13:32:46.512Z,21.68
2023-05-02T13:35:18.908Z,21.75
2023-05-02T13:37:51.635Z,22.14
2023-05-02T13:40:24.010Z,22.03
2023-05-02T13:42:57.047Z,22.05
2023-05-02T13:45:29.396Z,22.20
2023-05-02T13:48:01.918Z,21.75
2023-05-02T13:50:36.633Z,22.06
2023-05-02T13:53:09.013Z,22.26
2023-05-02T13:55:41.358Z,22.51
2023-05-02T13:58:14.457Z,22.73
2023-05-02T14:00:46.807Z,22.77
2023-05-02T14:03:19.523Z,22.38
2023-05-02T14:05:52.008Z,22.23
2023-05-02T14:08:24.530Z,22.02
2023-05-02T14:10:56.946Z,21.89
2023-05-02T14:13:30.063Z,22.21
2023-05-02T14:16:02.587Z,22.07
2023-05-02T14:18:35.029Z,22.00
2023-05-02T14:21:07.874Z,22.21
2023-05-02T14:23:40.350Z,22.19
2023-05-02T14:26:13.426Z,22.31
2023-05-02T14:28:46.578Z,22.22
2023-05-02T14:31:18.896Z,22.25
2023-05-02T14:33:51.436Z,22.45
2023-05-02T14:36:23.805Z,22.25
2023-05-02T14:38:56.141Z,22.21
2023-05-02T14:41:28.465Z,22.33
2023-05-02T14:44:01.506Z,22.31
2023-05-02T14:46:33.876Z,22.36
2023-05-02T14:49:06.206Z,22.29
2023-05-02T14:51:38.604Z,22.29
2023-05-02T14:54:10.864Z,22.13
2023-05-02T14:56:43.528Z,22.07
2023-05-02T14:59:16.556Z,21.83
2023-05-02T15:01:50.767Z,21.93
2023-05-02T15:04:25.601Z,21.99
2023-05-02T15:06:59.499Z,21.84
2023-05-02T15:09:31.882Z,21.65
2023-05-02T15:12:04.597Z,21.67
2023-05-02T15:14:37.539Z,21.65
2023-05-02T15:17:10.104Z,21.54
2023-05-02T15:19:42.497Z,21.26
2023-05-02T15:22:15.293Z,21.21
2023-05-02T15:24:47.612Z,21.10
2023-05-02T15:27:19.884Z,20.66
2023-05-02T15:29:52.941Z,20.41
2023-05-02T15:32:25.311Z,20.50
2023-05-02T15:34:57.788Z,20.55
2023-05-02T15:37:30.086Z,20.37
2023-05-02T15:40:03.491Z,20.04
2023-05-02T15:42:36.876Z,20.04
2023-05-02T15:45:13.101Z,19.73
2023-05-02T15:47:46.087Z,19.36
2023-05-02T15:50:19.053Z,19.42
2023-05-02T15:52:51.402Z,19.20
2023-05-02T15:55:23.715Z,19.03
2023-05-02T15:57:56.314Z,18.81
2023-05-02T16:00:29.642Z,18.92
2023-05-02T16:03:03.925Z,18.75
2023-05-02T16:05:36.491Z,18.55
2023-05-02T16:08:08.959Z,18.63
2023-05-02T16:10:42.778Z,18.53
2023-05-02T16:13:15.116Z,18.54
2023-05-02T16:15:48.189Z,18.59
2023-05-02T16:18:22.412Z,18.56
2023-05-02T16:20:55.248Z,18.59
2023-05-02T16:23:27.629Z,18.39
2023-05-02T16:26:00.904Z,18.34
2023-05-02T16:28:33.271Z,18.21
2023-05-02T16:31:06.812Z,18.06
2023-05-02T16:33:39.134Z,17.94
2023-05-02T16:36:11.447Z,18.05
2023-05-02T16:38:43.775Z,18.04
2023-05-02T16:41:16.100Z,17.71
2023-05-02T16:43:49.494Z,17.68
2023-05-02T16:46:22.518Z,17.50
2023-05-02T16:48:54.807Z,17.50
2023-05-02T16:51:27.453Z,17.44
2023-05-02T16:53:59.751Z,17.37
2023-05-02T16:56:32.067Z,17.33
2023-05-02T16:59:04.537Z,17.28
2023-05-02T17:01:37.729Z,17.08
2023-05-02T17:04:10.057Z,16.97
2023-05-02T17:06:42.495Z,17.00
2023-05-02T17:09:15.041Z,16.97
2023-05-02T17:11:47.379Z,16.80
2023-05-02T17:14:20.050Z,16.53
2023-05-02T17:16:53.069Z,16.54
2023-05-02T17:19:26.117Z,16.55
2023-05-02T17:21:59.386Z,16.28
2023-05-02T17:24:32.067Z,16.38
2023-05-02T17:27:04.437Z,16.27
2023-05-02T17:29:36.728Z,16.19
2023-05-02T17:32:10.898Z,16.24
2023-05-02T17:34:43.855Z,16.18
2023-05-02T17:37:16.224Z,16.06
2023-05-02T17:39:48.630Z,15.94
2023-05-02T17:42:20.964Z,15.90
2023-05-02T17:44:53.284Z,15.85
2023-05-02T17:47:26.298Z,15.86
2023-05-02T17:49:58.614Z,15.79
2023-05-02T17:52:31.458Z,15.63
2023-05-02T17:55:04.457Z,15.60
2023-05-02T17:57:36.781Z,15.61
2023-05-02T18:00:10.313Z,15.64
2023-05-02T18:02:43.661Z,15.59
2023-05-02T18:05:16.824Z,15.54
2023-05-02T18:07:49.151Z,15.44
2023-05-02T18:10:21.428Z,15.42
2023-05-02T18:12:53.829Z,15.14
2023-05-02T18:15:26.846Z,15.10
2023-05-02T18:17:59.847Z,15.06
2023-05-02T18:20:32.238Z,14.97
2023-05-02T18:23:05.383Z,14.94
2023-05-02T18:25:37.762Z,14.98
2023-05-02T18:28:10.936Z,14.95
2023-05-02T18:30:43.247Z,14.88
2023-05-02T18:33:16.430Z,14.67
2023-05-02T18:35:49.023Z,14.77
2023-05-02T18:38:21.320Z,14.75
2023-05-02T18:40:53.604Z,14.66
2023-05-02T18:43:25.946Z,14.66
2023-05-02T18:45:58.332Z,14.60
2023-05-02T18:48:31.686Z,14.61
2023-05-02T18:51:04.321Z,14.58
2023-05-02T18:53:36.679Z,14.46
2023-05-02T18:56:13.385Z,14.40
2023-05-02T18:58:45.880Z,14.28
2023-05-02T19:01:21.222Z,14.30
2023-05-02T19:03:54.607Z,14.21
2023-05-02T19:06:27.638Z,14.11
2023-05-02T19:09:00.149Z,14.06
2023-05-02T19:11:32.751Z,14.04
2023-05-02T19:14:05.082Z,13.98
2023-05-02T19:16:39.382Z,14.01
2023-05-02T19:19:12.493Z,13.95
2023-05-02T19:21:45.123Z,13.91
2023-05-02T19:24:18.907Z,13.95
2023-05-02T19:26:52.386Z,13.91
2023-05-02T19:29:24.646Z,13.85
2023-05-02T19:31:56.986Z,13.85
2023-05-02T19:34:31.118Z,13.75
2023-05-02T19:37:03.791Z,13.82
2023-05-02T19:39:36.139Z,13.74
2023-05-02T19:42:08.637Z,13.76
2023-05-02T19:44:41.169Z,13.82
2023-05-02T19:47:13.500Z,13.74
2023-05-02T19:49:46.436Z,13.70
2023-05-02T19:52:18.711Z,13.72
2023-05-02T19:54:51.164Z,13.74
2023-05-02T19:57:23.482Z,13.69
2023-05-02T19:59:55.801Z,13.61
2023-05-02T20:02:28.166Z,13.54
2023-05-02T20:05:01.814Z,13.60
2023-05-02T20:07:34.350Z,13.48
2023-05-02T20:10:08.289Z,13.54
2023-05-02T20:12:44.006Z,13.56
2023-05-02T20:15:16.850Z,13.65
2023-05-02T20:17:49.254Z,13.68
2023-05-02T20:20:22.276Z,13.72
2023-05-02T20:22:54.631Z,13.76
2023-05-02T20:25:27.937Z,13.79
2023-05-02T20:28:00.406Z,13.73
2023-05-02T20:30:32.962Z,13.52
2023-05-02T20:33:14.816Z,13.55
2023-05-02T20:35:54.172Z,13.42
2023-05-02T20:38:26.497Z,13.40
2023-05-02T20:40:58.780Z,13.39
2023-05-02T20:43:34.685Z,13.37
2023-05-02T20:46:10.935Z,13.36
2023-05-02T20:48:43.301Z,13.20
2023-05-02T20:51:16.315Z,13.14
2023-05-02T20:53:48.789Z,13.10
2023-05-02T20:56:21.098Z,13.08
2023-05-02T20:58:53.377Z,13.01
2023-05-02T21:01:25.859Z,12.84
2023-05-02T21:03:58.151Z,12.71
2023-05-02T21:06:31.905Z,12.56
2023-05-02T21:09:04.272Z,12.59
2023-05-02T21:11:36.637Z,12.67
2023-05-02T21:14:09.421Z,12.80
2023-05-02T21:16:41.776Z,12.87
2023-05-02T21:19:14.081Z,12.97
2023-05-02T21:21:47.525Z,12.99
2023-05-02T21:24:19.802Z,12.91
2023-05-02T21:26:52.254Z,12.93
2023-05-02T21:29:24.619Z,12.84
2023-05-02T21:31:56.914Z,12.95
2023-05-02T21:34:29.269Z,13.03
2023-05-02T21:37:02.447Z,13.07
2023-05-02T21:39:34.740Z,13.08
2023-05-02T21:42:07.048Z,13.11
2023-05-02T21:44:39.350Z,13.12
2023-05-02T21:47:11.701Z,13.12
2023-05-02T21:49:44.190Z,13.16
2023-05-02T21:52:17.210Z,13.09
2023-05-02T21:54:51.720Z,13.03
2023-05-02T21:57:24.055Z,13.09
2023-05-02T21:59:56.415Z,13.00
2023-05-02T22:02:28.898Z,12.95
2023-05-02T22:05:01.916Z,12.92
2023-05-02T22:07:35.515Z,12.95
2023-05-02T22:10:09.222Z,12.86
2023-05-02T22:12:41.830Z,12.88
2023-05-02T22:15:14.300Z,12.85
2023-05-02T22:17:46.799Z,12.83
2023-05-02T22:20:19.188Z,12.78
2023-05-02T22:22:52.148Z,12.81
2023-05-02T22:25:24.588Z,12.73
2023-05-02T22:28:00.344Z,12.69
2023-05-02T22:30:32.731Z,12.61
2023-05-02T22:33:05.790Z,12.53
2023-05-02T22:35:38.224Z,12.52
2023-05-02T22:38:14.676Z,12.40
2023-05-02T22:40:46.973Z,12.15
2023-05-02T22:43:19.286Z,12.21
2023-05-02T22:45:51.859Z,12.25
2023-05-02T22:48:24.588Z,12.16
2023-05-02T22:50:57.119Z,11.96
2023-05-02T22:53:30.715Z,12.02
2023-05-02T22:56:03.750Z,12.11
2023-05-02T22:58:36.040Z,12.08
2023-05-02T23:01:08.402Z,12.11
2023-05-02T23:03:40.890Z,12.19
2023-05-02T23:06:13.732Z,12.24
2023-05-02T23:08:46.747Z,12.27
2023-05-02T23:11:19.078Z,12.30
2023-05-02T23:13:51.372Z,12.29
2023-05-02T23:16:24.554Z,12.26
2023-05-02T23:18:56.846Z,12.22
2023-05-02T23:21:29.156Z,12.25
2023-05-02T23:24:02.206Z,12.29
2023-05-02T23:26:34.622Z,12.31
2023-05-02T23:29:06.909Z,12.35
2023-05-02T23:31:39.574Z,12.40
2023-05-02T23:34:12.061Z,12.41
2023-05-02T23:36:44.601Z,12.42
2023-05-02T23:39:17.588Z,12.44
2023-05-02T23:41:49.978Z,12.41
2023-05-02T23:44:22.351Z,12.43
2023-05-02T23:46:54.740Z,12.48
2023-05-02T23:49:27.131Z,12.51
2023-05-02T23:52:01.016Z,12.41
2023-05-02T23:54:34.918Z,12.47
2023-05-02T23:57:08.701Z,12.46
2023-05-02T23:59:40.944Z,12.38
